Time;durP1;ratioP1;P1;durP2;ratioP2;P2;SDS_P1;SDS_P2;PMS_P1;PMS_P2;Temp;Humidity;BMP_temperature;BMP_pressure;BME280_temperature;BME280_humidity;BME280_pressure;Samples;Min_cycle;Max_cycle;Signal;HPM_P1;HPM_P2
2023/07/01 00:02:21;;;;;;;;;;;23.30;50.70;;;;;;10293253;28;94585;-67
2023/07/01 00:07:23;;;;;;;;;;;23.30;50.70;;;;;;10293319;28;94430;-66
2023/07/01 00:12:25;;;;;;;;;;;23.40;50.70;;;;;;10293237;28;92975;-66
2023/07/01 00:17:27;;;;;;;;;;;23.30;50.60;;;;;;10291745;28;94508;-66
2023/07/01 00:22:28;;;;;;;;;;;23.40;50.70;;;;;;10292466;28;94222;-66
2023/07/01 00:27:30;;;;;;;;;;;23.40;50.80;;;;;;10288964;28;95890;-66
2023/07/01 00:32:31;;;;;;;;;;;23.40;50.70;;;;;;10292659;28;93818;-61
2023/07/01 00:37:33;;;;;;;;;;;23.40;50.80;;;;;;10293039;28;93249;-61
2023/07/01 00:42:35;;;;;;;;;;;23.40;50.80;;;;;;10292669;28;93637;-61
2023/07/01 00:47:40;;;;;;;;;;;23.30;50.70;;;;;;10292950;28;94598;-61
2023/07/01 00:52:43;;;;;;;;;;;23.40;50.90;;;;;;10332284;28;92991;-61
2023/07/01 00:57:45;;;;;;;;;;;23.30;50.80;;;;;;10332202;28;93618;-61
2023/07/01 01:02:46;;;;;;;;;;;23.40;50.90;;;;;;10333314;28;93234;-60
2023/07/01 01:07:54;;;;;;;;;;;23.30;50.90;;;;;;10330055;28;93435;-60
2023/07/01 01:12:57;;;;;;;;;;;23.30;50.80;;;;;;10331543;28;93587;-61
2023/07/01 01:18:03;;;;;;;;;;;23.30;50.80;;;;;;10328700;28;95865;-61
2023/07/01 01:23:13;;;;;;;;;;;23.30;50.90;;;;;;10331750;28;93472;-60
2023/07/01 01:28:15;;;;;;;;;;;23.20;50.80;;;;;;10331444;28;94935;-60
2023/07/01 01:33:16;;;;;;;;;;;23.20;51.00;;;;;;10313074;28;93496;-61
2023/07/01 01:38:20;;;;;;;;;;;23.30;51.10;;;;;;10331315;28;94464;-60
2023/07/01 01:43:27;;;;;;;;;;;23.20;51.30;;;;;;10331796;28;93500;-61
2023/07/01 01:48:29;;;;;;;;;;;23.20;51.40;;;;;;10330205;28;93567;-61
2023/07/01 01:53:32;;;;;;;;;;;23.20;51.50;;;;;;10331779;28;93831;-60
2023/07/01 01:58:33;;;;;;;;;;;23.20;51.50;;;;;;10330833;28;94481;-60
2023/07/01 02:03:35;;;;;;;;;;;23.20;51.70;;;;;;10330481;28;94517;-66
2023/07/01 02:08:37;;;;;;;;;;;23.20;51.70;;;;;;10327517;28;97055;-66
2023/07/01 02:13:39;;;;;;;;;;;23.20;51.90;;;;;;10312223;28;93703;-66
2023/07/01 02:18:41;;;;;;;;;;;23.20;51.90;;;;;;10329356;28;94485;-66
2023/07/01 02:23:42;;;;;;;;;;;23.10;52.00;;;;;;10330757;28;94097;-65
2023/07/01 02:28:44;;;;;;;;;;;23.20;52.00;;;;;;10329434;28;92930;-66
2023/07/01 02:33:46;;;;;;;;;;;23.20;52.10;;;;;;10328795;28;94176;-66
2023/07/01 02:38:48;;;;;;;;;;;23.10;52.10;;;;;;10310737;28;94760;-66
2023/07/01 02:43:49;;;;;;;;;;;23.10;52.10;;;;;;10331078;28;93790;-66
2023/07/01 02:48:51;;;;;;;;;;;23.20;52.20;;;;;;10328171;28;93610;-66
2023/07/01 02:53:53;;;;;;;;;;;23.20;52.20;;;;;;10327964;28;93679;-66
2023/07/01 02:58:54;;;;;;;;;;;23.20;52.30;;;;;;10309009;28;95861;-67
2023/07/01 03:03:56;;;;;;;;;;;23.10;52.30;;;;;;10328066;28;94341;-66
2023/07/01 03:09:07;;;;;;;;;;;23.20;52.50;;;;;;10328892;28;93581;-66
2023/07/01 03:14:09;;;;;;;;;;;23.20;52.50;;;;;;10328440;28;93529;-66
2023/07/01 03:19:10;;;;;;;;;;;23.20;52.50;;;;;;10328252;28;94019;-66
2023/07/01 03:24:12;;;;;;;;;;;23.20;52.70;;;;;;10327940;28;94958;-66
2023/07/01 03:29:14;;;;;;;;;;;23.20;52.70;;;;;;10309302;28;93576;-66
2023/07/01 03:34:16;;;;;;;;;;;23.20;52.70;;;;;;10311213;28;93028;-66
2023/07/01 03:39:18;;;;;;;;;;;23.20;52.70;;;;;;10309430;28;94506;-65
2023/07/01 03:44:19;;;;;;;;;;;23.20;52.80;;;;;;10310136;28;93971;-67
2023/07/01 03:49:21;;;;;;;;;;;23.20;52.70;;;;;;10323904;28;96877;-61
2023/07/01 03:54:23;;;;;;;;;;;23.20;52.80;;;;;;10309441;28;93582;-61
2023/07/01 03:59:25;;;;;;;;;;;23.20;52.80;;;;;;10327673;28;94596;-61
2023/07/01 04:04:26;;;;;;;;;;;23.20;52.80;;;;;;10309027;28;94763;-60
2023/07/01 04:09:29;;;;;;;;;;;23.20;53.00;;;;;;10326462;28;93503;-60
2023/07/01 04:14:30;;;;;;;;;;;23.20;53.00;;;;;;10325646;28;93544;-61
2023/07/01 04:19:32;;;;;;;;;;;23.10;53.10;;;;;;10326899;28;95357;-61
2023/07/01 04:24:34;;;;;;;;;;;23.20;53.20;;;;;;10326916;28;93053;-60
2023/07/01 04:29:35;;;;;;;;;;;23.10;53.10;;;;;;10325123;28;93961;-61
2023/07/01 04:34:37;;;;;;;;;;;23.10;53.00;;;;;;10325977;28;93549;-61
2023/07/01 04:39:39;;;;;;;;;;;23.10;54.20;;;;;;10323776;28;96074;-61
2023/07/01 04:44:41;;;;;;;;;;;23.10;53.30;;;;;;10333346;28;93600;-61
2023/07/01 04:49:42;;;;;;;;;;;23.10;53.40;;;;;;10768983;22;94699;-61
2023/07/01 04:54:44;;;;;;;;;;;23.10;53.50;;;;;;10333448;28;93586;-61
2023/07/01 04:59:46;;;;;;;;;;;23.10;53.50;;;;;;10333146;28;94183;-61
2023/07/01 05:04:47;;;;;;;;;;;23.10;53.60;;;;;;10332314;28;94645;-61
2023/07/01 05:09:49;;;;;;;;;;;23.10;53.50;;;;;;10333516;28;93271;-61
2023/07/01 05:14:51;;;;;;;;;;;23.10;53.60;;;;;;10332323;28;92324;-61
2023/07/01 05:19:53;;;;;;;;;;;23.10;53.70;;;;;;10330242;28;92651;-61
2023/07/01 05:24:55;;;;;;;;;;;23.00;53.90;;;;;;10331828;28;94485;-62
2023/07/01 05:29:57;;;;;;;;;;;23.00;54.10;;;;;;10309611;28;97185;-61
2023/07/01 05:34:58;;;;;;;;;;;23.00;54.30;;;;;;10330706;28;94297;-61
2023/07/01 05:40:00;;;;;;;;;;;23.00;54.30;;;;;;10330512;28;94453;-61
2023/07/01 05:45:02;;;;;;;;;;;23.00;54.70;;;;;;10330781;28;94503;-62
2023/07/01 05:50:04;;;;;;;;;;;23.00;54.70;;;;;;10328224;28;93796;-61
2023/07/01 05:55:06;;;;;;;;;;;23.00;54.70;;;;;;10312923;28;94602;-61
2023/07/01 06:00:09;;;;;;;;;;;23.00;54.70;;;;;;10312015;28;93582;-61
2023/07/01 06:05:11;;;;;;;;;;;23.00;55.10;;;;;;10331122;28;93819;-61
2023/07/01 06:10:13;;;;;;;;;;;23.00;55.10;;;;;;10330134;28;93633;-63
2023/07/01 06:15:16;;;;;;;;;;;23.00;55.10;;;;;;10329790;28;93293;-61
2023/07/01 06:20:18;;;;;;;;;;;23.00;54.90;;;;;;10326800;28;97431;-61
2023/07/01 06:25:20;;;;;;;;;;;23.00;55.20;;;;;;10329623;28;94582;-61
2023/07/01 06:30:22;;;;;;;;;;;23.00;55.10;;;;;;10328678;28;94549;-61
2023/07/01 06:35:23;;;;;;;;;;;23.10;55.30;;;;;;10329388;28;94440;-61
2023/07/01 06:40:25;;;;;;;;;;;23.00;55.20;;;;;;10329256;28;94612;-61
2023/07/01 06:45:27;;;;;;;;;;;23.10;55.60;;;;;;10328888;28;93406;-61
2023/07/01 06:50:28;;;;;;;;;;;23.10;55.40;;;;;;10310327;28;93570;-61
2023/07/01 06:55:30;;;;;;;;;;;23.10;55.40;;;;;;10329259;28;91824;-66
2023/07/01 07:00:32;;;;;;;;;;;23.10;55.50;;;;;;10327918;28;94689;-66
2023/07/01 07:05:34;;;;;;;;;;;23.10;55.60;;;;;;10309262;28;93579;-66
2023/07/01 07:10:36;;;;;;;;;;;23.10;55.50;;;;;;10326607;28;100401;-66
2023/07/01 07:15:38;;;;;;;;;;;23.10;55.60;;;;;;10309677;28;93603;-66
2023/07/01 07:20:40;;;;;;;;;;;23.10;55.80;;;;;;10310734;28;94689;-66
2023/07/01 07:25:42;;;;;;;;;;;23.10;55.80;;;;;;10328445;28;93262;-66
2023/07/01 07:30:44;;;;;;;;;;;23.10;55.70;;;;;;10327915;28;93456;-61
2023/07/01 07:35:46;;;;;;;;;;;23.10;56.10;;;;;;10326369;28;93484;-61
2023/07/01 07:40:48;;;;;;;;;;;23.00;55.90;;;;;;10309316;28;94475;-61
2023/07/01 07:45:50;;;;;;;;;;;23.00;56.30;;;;;;10327397;28;92647;-62
2023/07/01 07:50:52;;;;;;;;;;;23.00;56.10;;;;;;10326266;28;94692;-61
2023/07/01 07:55:54;;;;;;;;;;;23.00;56.10;;;;;;10327369;28;94461;-61
2023/07/01 08:00:55;;;;;;;;;;;23.00;56.40;;;;;;10324285;28;96906;-62
2023/07/01 08:05:57;;;;;;;;;;;23.00;56.50;;;;;;10326902;28;94596;-61
2023/07/01 08:10:59;;;;;;;;;;;23.00;56.70;;;;;;10326073;28;93726;-61
2023/07/01 08:16:00;;;;;;;;;;;23.00;56.90;;;;;;10330668;28;93633;-61
2023/07/01 08:21:03;;;;;;;;;;;23.00;57.00;;;;;;10334120;28;94695;-61
2023/07/01 08:26:05;;;;;;;;;;;22.90;57.10;;;;;;10333752;28;94477;-61
2023/07/01 08:31:07;;;;;;;;;;;22.90;57.00;;;;;;10333148;28;94547;-61
2023/07/01 08:36:09;;;;;;;;;;;22.90;57.10;;;;;;10333246;28;92760;-61
2023/07/01 08:41:13;;;;;;;;;;;22.90;57.30;;;;;;10332878;28;92562;-61
2023/07/01 08:46:15;;;;;;;;;;;22.90;57.30;;;;;;10332279;28;94519;-62
2023/07/01 08:51:36;;;;;;;;;;;22.90;57.30;;;;;;10329663;28;95322;-66
2023/07/01 08:56:37;;;;;;;;;;;22.90;57.30;;;;;;10314863;28;95066;-66
2023/07/01 09:01:39;;;;;;;;;;;22.90;57.30;;;;;;10331728;28;93671;-67
2023/07/01 09:06:41;;;;;;;;;;;22.90;57.40;;;;;;10332051;28;93536;-66
2023/07/01 09:11:43;;;;;;;;;;;22.90;57.70;;;;;;10314784;28;94574;-67
2023/07/01 09:16:44;;;;;;;;;;;22.90;57.50;;;;;;10331224;28;92969;-67
2023/07/01 09:21:46;;;;;;;;;;;22.90;57.50;;;;;;10331800;28;93083;-66
2023/07/01 09:26:52;;;;;;;;;;;22.90;57.70;;;;;;10331456;28;94318;-67
2023/07/01 09:31:54;;;;;;;;;;;22.90;57.50;;;;;;10331873;28;93466;-67
2023/07/01 09:37:14;;;;;;;;;;;23.00;57.50;;;;;;10330513;28;93646;-67
2023/07/01 09:42:18;;;;;;;;;;;23.00;57.50;;;;;;10327138;28;95926;-66
2023/07/01 09:47:26;;;;;;;;;;;23.00;57.80;;;;;;10330841;28;94480;-61
2023/07/01 09:52:35;;;;;;;;;;;23.00;57.70;;;;;;10329979;28;93674;-66
2023/07/01 09:57:37;;;;;;;;;;;23.00;57.70;;;;;;10329834;28;93694;-61
2023/07/01 10:02:39;;;;;;;;;;;23.00;57.90;;;;;;10330008;28;93464;-61
2023/07/01 10:07:42;;;;;;;;;;;23.10;57.80;;;;;;10330259;28;93432;-61
2023/07/01 10:12:45;;;;;;;;;;;23.00;57.70;;;;;;10330196;28;94494;-61
2023/07/01 10:17:48;;;;;;;;;;;23.10;58.00;;;;;;10330784;28;95539;-61
2023/07/01 10:22:54;;;;;;;;;;;23.10;58.00;;;;;;10330000;28;94041;-61
2023/07/01 10:28:01;;;;;;;;;;;23.00;58.00;;;;;;10329338;28;93629;-61
2023/07/01 10:33:23;;;;;;;;;;;23.10;58.40;;;;;;10326719;28;96981;-61
2023/07/01 10:38:24;;;;;;;;;;;23.10;58.80;;;;;;10329096;28;94582;-61
2023/07/01 10:43:33;;;;;;;;;;;23.10;58.50;;;;;;10329979;28;94579;-61
2023/07/01 10:48:36;;;;;;;;;;;23.00;58.50;;;;;;10310655;28;93619;-61
2023/07/01 10:53:57;;;;;;;;;;;23.00;58.70;;;;;;10309797;28;93512;-61
2023/07/01 10:59:17;;;;;;;;;;;23.00;58.40;;;;;;10328814;28;93498;-61
2023/07/01 11:04:19;;;;;;;;;;;23.00;58.60;;;;;;10310806;28;93585;-61
2023/07/01 11:09:28;;;;;;;;;;;23.00;58.50;;;;;;10329576;28;93654;-61
2023/07/01 11:14:34;;;;;;;;;;;23.00;58.60;;;;;;10329215;28;94454;-61
2023/07/01 11:19:36;;;;;;;;;;;23.00;58.80;;;;;;10327912;28;93495;-61
2023/07/01 11:24:38;;;;;;;;;;;23.00;58.90;;;;;;10325801;28;96903;-61
2023/07/01 11:29:43;;;;;;;;;;;23.00;58.80;;;;;;10310178;28;94473;-61
2023/07/01 11:34:49;;;;;;;;;;;23.00;59.50;;;;;;10309928;28;94186;-61
2023/07/01 11:39:53;;;;;;;;;;;23.00;59.10;;;;;;10309297;28;93394;-61
2023/07/01 11:44:55;;;;;;;;;;;23.00;60.40;;;;;;10326559;28;94122;-61
2023/07/01 11:50:02;;;;;;;;;;;23.00;60.20;;;;;;10329343;28;92749;-66
2023/07/01 11:55:04;;;;;;;;;;;23.00;59.50;;;;;;10333668;28;93531;-66
2023/07/01 12:00:07;;;;;;;;;;;23.00;59.40;;;;;;10334529;28;93546;-66
2023/07/01 12:05:10;;;;;;;;;;;23.00;60.00;;;;;;10332956;28;94112;-67
2023/07/01 12:10:20;;;;;;;;;;;23.00;59.60;;;;;;10333737;28;93807;-66
2023/07/01 12:15:23;;;;;;;;;;;23.00;60.00;;;;;;10331376;28;95730;-67
2023/07/01 12:20:24;;;;;;;;;;;23.00;60.20;;;;;;10333491;28;92976;-66
2023/07/01 12:25:27;;;;;;;;;;;23.00;60.00;;;;;;10333561;28;94410;-66
2023/07/01 12:30:28;;;;;;;;;;;23.00;59.80;;;;;;10333160;28;93546;-66
2023/07/01 12:35:30;;;;;;;;;;;23.10;59.90;;;;;;10332405;28;93538;-66
2023/07/01 12:40:32;;;;;;;;;;;23.10;59.80;;;;;;10332676;28;94596;-66
2023/07/01 12:45:34;;;;;;;;;;;23.00;60.00;;;;;;10314509;28;94487;-67
2023/07/01 12:50:35;;;;;;;;;;;23.00;60.00;;;;;;10333230;28;93821;-67
2023/07/01 12:55:37;;;;;;;;;;;23.10;60.10;;;;;;10332581;28;96911;-60
2023/07/01 13:00:40;;;;;;;;;;;23.00;60.20;;;;;;10330666;28;93820;-67
2023/07/01 13:05:46;;;;;;;;;;;23.00;60.00;;;;;;10312256;28;96836;-67
2023/07/01 13:10:48;;;;;;;;;;;23.00;60.00;;;;;;10313365;28;93356;-66
2023/07/01 13:15:51;;;;;;;;;;;23.10;59.90;;;;;;10332139;28;92702;-67
2023/07/01 13:20:52;;;;;;;;;;;23.10;60.00;;;;;;10332980;28;95132;-66
2023/07/01 13:25:54;;;;;;;;;;;23.10;60.00;;;;;;10313727;28;94622;-66
2023/07/01 13:30:56;;;;;;;;;;;23.10;59.90;;;;;;10332170;28;94564;-66
2023/07/01 13:35:59;;;;;;;;;;;23.10;60.00;;;;;;10314285;28;94615;-67
2023/07/01 13:41:01;;;;;;;;;;;23.10;60.10;;;;;;10331700;28;93756;-67
2023/07/01 13:46:02;;;;;;;;;;;23.10;60.00;;;;;;10313125;28;94579;-66
2023/07/01 13:51:04;;;;;;;;;;;23.10;59.90;;;;;;10312236;28;94767;-67
2023/07/01 13:56:06;;;;;;;;;;;23.10;60.00;;;;;;10308777;28;96120;-67
2023/07/01 14:01:08;;;;;;;;;;;23.10;59.90;;;;;;10330805;28;94457;-67
2023/07/01 14:06:09;;;;;;;;;;;23.10;59.90;;;;;;10311454;28;93775;-66
2023/07/01 14:11:14;;;;;;;;;;;23.10;59.90;;;;;;10327887;28;94026;-67
2023/07/01 14:16:18;;;;;;;;;;;23.10;59.90;;;;;;10329732;28;93906;-66
2023/07/01 14:21:22;;;;;;;;;;;23.10;60.00;;;;;;10329878;28;94012;-66
2023/07/01 14:26:25;;;;;;;;;;;23.10;59.90;;;;;;10330067;28;93684;-67
2023/07/01 14:31:30;;;;;;;;;;;23.10;59.90;;;;;;10329648;28;94153;-66
2023/07/01 14:36:33;;;;;;;;;;;23.10;59.90;;;;;;10329298;28;94488;-66
2023/07/01 14:41:36;;;;;;;;;;;23.10;59.90;;;;;;10328609;28;93572;-66
2023/07/01 14:46:38;;;;;;;;;;;23.10;59.90;;;;;;10325506;28;95977;-66
2023/07/01 14:51:40;;;;;;;;;;;23.10;59.90;;;;;;10328101;28;94445;-66
2023/07/01 14:56:41;;;;;;;;;;;23.10;59.90;;;;;;10328652;28;93922;-66
2023/07/01 15:01:43;;;;;;;;;;;23.10;59.90;;;;;;10328033;28;94639;-67
2023/07/01 15:06:45;;;;;;;;;;;23.10;59.70;;;;;;10328554;28;94366;-66
2023/07/01 15:11:47;;;;;;;;;;;23.00;59.60;;;;;;10327995;28;93746;-67
2023/07/01 15:16:48;;;;;;;;;;;23.00;59.60;;;;;;10327736;28;93677;-66
2023/07/01 15:21:50;;;;;;;;;;;23.10;59.60;;;;;;10327314;28;92916;-66
2023/07/01 15:26:52;;;;;;;;;;;23.00;59.50;;;;;;10327485;28;93421;-65
2023/07/01 15:31:54;;;;;;;;;;;23.00;59.40;;;;;;10326960;28;93646;-66
2023/07/01 15:36:56;;;;;;;;;;;23.00;59.40;;;;;;10307003;28;96898;-61
2023/07/01 15:41:57;;;;;;;;;;;23.00;59.30;;;;;;10327402;28;92666;-61
2023/07/01 15:46:59;;;;;;;;;;;23.00;59.30;;;;;;10326683;28;94053;-61
2023/07/01 15:52:01;;;;;;;;;;;23.00;59.20;;;;;;10325980;28;92820;-61
2023/07/01 15:57:03;;;;;;;;;;;23.00;59.20;;;;;;10326831;28;94513;-61
2023/07/01 16:02:05;;;;;;;;;;;23.00;59.10;;;;;;10327843;28;94680;-60
2023/07/01 16:07:16;;;;;;;;;;;23.00;59.00;;;;;;10326610;28;94563;-61
2023/07/01 16:12:18;;;;;;;;;;;23.10;58.90;;;;;;10310922;28;93891;-60
2023/07/01 16:17:20;;;;;;;;;;;23.10;58.90;;;;;;10325696;28;93896;-61
2023/07/01 16:22:22;;;;;;;;;;;23.00;58.70;;;;;;10325136;28;93405;-66
2023/07/01 16:27:25;;;;;;;;;;;23.00;58.70;;;;;;10306290;28;97034;-66
2023/07/01 16:32:27;;;;;;;;;;;23.00;58.60;;;;;;10307794;28;94559;-66
2023/07/01 16:37:28;;;;;;;;;;;23.00;58.50;;;;;;10330219;28;94979;-66
2023/07/01 16:42:34;;;;;;;;;;;23.00;58.80;;;;;;10333097;28;94456;-66
2023/07/01 16:47:36;;;;;;;;;;;23.00;58.50;;;;;;10331594;28;94144;-66
2023/07/01 16:52:38;;;;;;;;;;;23.00;58.40;;;;;;10314415;28;94431;-66
2023/07/01 16:57:39;;;;;;;;;;;23.00;58.30;;;;;;10332268;28;93714;-61
2023/07/01 17:03:00;;;;;;;;;;;23.00;58.30;;;;;;10333998;28;92311;-61
2023/07/01 17:08:02;;;;;;;;;;;23.10;58.20;;;;;;10314419;28;93467;-60
2023/07/01 17:13:27;;;;;;;;;;;23.00;58.10;;;;;;10331701;28;94447;-60
2023/07/01 17:18:29;;;;;;;;;;;23.00;58.00;;;;;;10318426;28;94932;-60
2023/07/01 17:23:31;;;;;;;;;;;23.00;58.10;;;;;;10331663;28;93117;-61
2023/07/01 17:28:33;;;;;;;;;;;23.00;58.10;;;;;;10332319;28;94566;-61
2023/07/01 17:33:35;;;;;;;;;;;22.90;58.10;;;;;;10313535;28;93810;-60
2023/07/01 17:38:37;;;;;;;;;;;23.00;58.20;;;;;;10332405;28;94830;-60
2023/07/01 17:43:38;;;;;;;;;;;22.90;58.20;;;;;;10331185;28;94108;-60
2023/07/01 17:48:40;;;;;;;;;;;22.90;58.10;;;;;;10329706;28;93290;-61
2023/07/01 17:53:42;;;;;;;;;;;22.90;58.20;;;;;;10331465;28;93043;-60
2023/07/01 17:58:43;;;;;;;;;;;22.90;58.20;;;;;;10330985;28;94775;-61
2023/07/01 18:03:45;;;;;;;;;;;22.90;58.20;;;;;;10329613;28;94232;-60
2023/07/01 18:08:48;;;;;;;;;;;22.90;58.10;;;;;;10327512;28;96151;-60
2023/07/01 18:13:50;;;;;;;;;;;22.80;58.00;;;;;;10328910;28;96252;-61
2023/07/01 18:18:51;;;;;;;;;;;22.80;58.10;;;;;;10329596;28;94202;-60
2023/07/01 18:23:53;;;;;;;;;;;22.90;58.10;;;;;;10329750;28;93806;-61
2023/07/01 18:28:55;;;;;;;;;;;22.80;58.00;;;;;;10330070;28;94623;-60
2023/07/01 18:33:56;;;;;;;;;;;22.80;57.90;;;;;;10329502;28;93631;-60
2023/07/01 18:38:58;;;;;;;;;;;22.80;58.00;;;;;;10329487;28;94550;-61
2023/07/01 18:44:00;;;;;;;;;;;22.80;57.90;;;;;;10329117;28;93771;-61
2023/07/01 18:49:01;;;;;;;;;;;22.80;58.00;;;;;;10327584;28;94449;-61
2023/07/01 18:54:03;;;;;;;;;;;22.80;58.20;;;;;;10329610;28;94682;-61
2023/07/01 18:59:05;;;;;;;;;;;22.80;57.90;;;;;;10324757;28;95981;-61
2023/07/01 19:04:07;;;;;;;;;;;22.80;57.80;;;;;;10309871;28;93703;-61
2023/07/01 19:09:08;;;;;;;;;;;22.80;57.90;;;;;;10327543;28;93573;-61
2023/07/01 19:14:10;;;;;;;;;;;22.80;57.80;;;;;;10327276;28;94527;-61
2023/07/01 19:19:19;;;;;;;;;;;22.80;57.80;;;;;;10328144;28;95283;-66
2023/07/01 19:24:23;;;;;;;;;;;22.80;57.80;;;;;;10328400;28;94642;-67
2023/07/01 19:29:26;;;;;;;;;;;22.80;57.80;;;;;;10327977;28;93703;-67
2023/07/01 19:34:28;;;;;;;;;;;22.80;57.70;;;;;;10328858;28;93499;-67
2023/07/01 19:39:30;;;;;;;;;;;22.80;57.70;;;;;;10326686;28;93632;-66
2023/07/01 19:44:31;;;;;;;;;;;22.80;57.70;;;;;;10327190;28;94234;-67
2023/07/01 19:49:33;;;;;;;;;;;22.80;57.70;;;;;;10323878;28;96804;-66
2023/07/01 19:54:34;;;;;;;;;;;22.80;57.70;;;;;;10326895;28;94599;-66
2023/07/01 19:59:39;;;;;;;;;;;22.80;57.70;;;;;;10326659;28;94105;-68
2023/07/01 20:04:41;;;;;;;;;;;22.80;57.60;;;;;;10326456;28;96235;-61
2023/07/01 20:09:43;;;;;;;;;;;22.80;57.60;;;;;;10327630;28;94478;-61
2023/07/01 20:14:45;;;;;;;;;;;22.80;57.60;;;;;;10333811;28;94813;-61
2023/07/01 20:19:47;;;;;;;;;;;22.80;57.50;;;;;;10332933;28;93629;-61
2023/07/01 20:24:49;;;;;;;;;;;22.90;57.60;;;;;;10334008;28;92746;-67
2023/07/01 20:29:52;;;;;;;;;;;22.90;57.50;;;;;;10315088;28;93845;-66
2023/07/01 20:34:53;;;;;;;;;;;22.90;57.50;;;;;;10333270;28;94698;-61
2023/07/01 20:39:55;;;;;;;;;;;22.90;57.50;;;;;;10312936;28;96811;-61
2023/07/01 20:44:57;;;;;;;;;;;22.80;57.50;;;;;;10333072;28;94530;-62
2023/07/01 20:49:58;;;;;;;;;;;22.90;57.40;;;;;;10332326;28;93603;-61
2023/07/01 20:55:00;;;;;;;;;;;22.90;57.40;;;;;;10332812;28;94492;-61
2023/07/01 21:00:02;;;;;;;;;;;22.90;57.40;;;;;;10331175;28;93545;-61
2023/07/01 21:05:04;;;;;;;;;;;22.80;57.30;;;;;;10332269;28;93578;-61
2023/07/01 21:10:06;;;;;;;;;;;22.80;57.30;;;;;;10332451;28;92736;-61
2023/07/01 21:15:08;;;;;;;;;;;22.80;57.30;;;;;;10314385;28;92864;-61
2023/07/01 21:20:10;;;;;;;;;;;22.80;57.30;;;;;;10330939;28;92563;-61
2023/07/01 21:25:11;;;;;;;;;;;22.80;57.30;;;;;;10330387;28;93530;-61
2023/07/01 21:30:17;;;;;;;;;;;22.80;57.20;;;;;;10311271;28;96945;-60
2023/07/01 21:35:29;;;;;;;;;;;22.80;57.20;;;;;;10330440;28;93498;-61
2023/07/01 21:40:33;;;;;;;;;;;22.80;57.20;;;;;;10330547;28;93531;-62
2023/07/01 21:45:35;;;;;;;;;;;22.80;57.20;;;;;;10331354;28;94481;-61
2023/07/01 21:50:52;;;;;;;;;;;22.70;57.20;;;;;;10329853;28;93393;-61
2023/07/01 21:55:54;;;;;;;;;;;22.70;57.10;;;;;;10330643;28;93419;-61
2023/07/01 22:00:59;;;;;;;;;;;22.70;57.10;;;;;;10330090;28;93661;-61
2023/07/01 22:06:01;;;;;;;;;;;22.70;57.00;;;;;;10331704;28;92135;-67
2023/07/01 22:11:03;;;;;;;;;;;22.70;57.00;;;;;;10330226;28;94497;-66
2023/07/01 22:16:07;;;;;;;;;;;22.70;57.00;;;;;;10329598;28;93499;-66
2023/07/01 22:21:09;;;;;;;;;;;22.70;57.00;;;;;;10326411;28;96017;-67
2023/07/01 22:26:11;;;;;;;;;;;22.70;57.00;;;;;;10329030;28;93821;-66
2023/07/01 22:31:13;;;;;;;;;;;22.70;57.00;;;;;;10311923;28;94897;-61
2023/07/01 22:36:14;;;;;;;;;;;22.70;57.00;;;;;;10328362;28;93431;-61
2023/07/01 22:41:16;;;;;;;;;;;22.70;57.00;;;;;;10328945;28;94049;-67
2023/07/01 22:46:18;;;;;;;;;;;22.70;57.00;;;;;;10329016;28;93541;-67
2023/07/01 22:51:20;;;;;;;;;;;22.70;57.00;;;;;;10327389;28;93868;-66
2023/07/01 22:56:22;;;;;;;;;;;22.70;57.00;;;;;;10329221;28;92692;-62
2023/07/01 23:01:26;;;;;;;;;;;22.70;56.90;;;;;;10328316;28;114150;-61
2023/07/01 23:06:27;;;;;;;;;;;22.70;56.90;;;;;;10328564;28;93131;-61
2023/07/01 23:11:29;;;;;;;;;;;22.70;56.90;;;;;;10324724;28;95958;-61
2023/07/01 23:16:31;;;;;;;;;;;22.70;56.90;;;;;;10309835;28;93791;-61
2023/07/01 23:21:34;;;;;;;;;;;22.70;56.80;;;;;;10309974;28;93450;-62
2023/07/01 23:26:37;;;;;;;;;;;22.70;56.80;;;;;;10327498;28;94545;-61
2023/07/01 23:31:40;;;;;;;;;;;22.80;56.70;;;;;;10327180;28;93512;-61
2023/07/01 23:36:42;;;;;;;;;;;22.70;56.50;;;;;;10327594;28;93536;-61
2023/07/01 23:41:44;;;;;;;;;;;22.80;56.40;;;;;;10327134;28;94809;-61
2023/07/01 23:46:45;;;;;;;;;;;22.70;56.20;;;;;;10332606;28;92897;-61
2023/07/01 23:51:47;;;;;;;;;;;22.80;56.10;;;;;;10334616;28;94537;-61
2023/07/01 23:56:49;;;;;;;;;;;22.70;55.80;;;;;;10335499;28;92758;-61
